Templeton, Massachusetts
Current Conditions -  °F | °C
As of 3:52 PM on Saturday 22 Nov 2014 (Local Time) from KORE Reporting Station
Scattered Clouds Scattered Clouds  
Wind Chill: 30°   Ceiling: Unl
Heat Index: 38°   Visibility: 10mi
Dew Point: 10°   Wind: 13mph
Humidity: 32%   Direction: 200°SSW
Pressure: 30.13"   Gusts: NA
Location:  42.56°N, 72.07°W
Report Text: KORE 222052Z AUTO 20011KT 10SM FEW070 SCT110 03/M12 A3013 RMK AO2 SLP210 T00331122 56024
Loading
Personal Weather Stations






























Interactive Weather Map New forecast layout! Learn more

10-Day Weather Forecast

Advertisements
Track Severe Weather on mobile